createdAt,value
2023-02-24T00:00:10.781Z,21.99
2023-02-24T00:01:10.765Z,21.98
2023-02-24T00:02:10.807Z,21.99
2023-02-24T00:03:10.699Z,21.98
2023-02-24T00:04:10.665Z,21.98
2023-02-24T00:05:10.635Z,21.98
2023-02-24T00:06:10.614Z,21.98
2023-02-24T00:07:10.705Z,21.98
2023-02-24T00:08:10.570Z,21.99
2023-02-24T00:09:10.532Z,21.98
2023-02-24T00:10:10.505Z,21.98
2023-02-24T00:11:10.497Z,21.97
2023-02-24T00:12:10.469Z,21.98
2023-02-24T00:13:10.465Z,21.98
2023-02-24T00:14:10.485Z,21.98
2023-02-24T00:15:10.479Z,21.97
2023-02-24T00:16:10.491Z,21.98
2023-02-24T00:17:10.542Z,21.98
2023-02-24T00:18:10.351Z,21.98
2023-02-24T00:19:10.382Z,21.98
2023-02-24T00:20:10.284Z,21.98
2023-02-24T00:21:10.276Z,21.97
2023-02-24T00:22:10.239Z,21.96
2023-02-24T00:23:10.278Z,21.97
2023-02-24T00:24:10.197Z,21.97
2023-02-24T00:25:10.175Z,21.98
2023-02-24T00:26:10.145Z,21.97
2023-02-24T00:27:10.119Z,21.97
2023-02-24T00:28:10.105Z,21.97
2023-02-24T00:29:10.091Z,21.98
2023-02-24T00:30:10.048Z,21.98
2023-02-24T00:31:10.146Z,21.98
2023-02-24T00:32:10.208Z,21.98
2023-02-24T00:33:09.985Z,21.98
2023-02-24T00:34:09.965Z,21.97
2023-02-24T00:35:09.928Z,21.97
2023-02-24T00:36:09.911Z,21.97
2023-02-24T00:37:09.905Z,21.97
2023-02-24T00:38:09.869Z,21.97
2023-02-24T00:39:09.834Z,21.97
2023-02-24T00:40:09.813Z,21.97
2023-02-24T00:41:09.788Z,21.97
2023-02-24T00:42:09.783Z,21.97
2023-02-24T00:43:09.758Z,21.97
2023-02-24T00:44:09.739Z,21.97
2023-02-24T00:45:09.706Z,21.97
2023-02-24T00:46:09.744Z,21.97
2023-02-24T00:47:09.677Z,21.96
2023-02-24T00:48:09.656Z,21.97
2023-02-24T00:49:09.632Z,21.97
2023-02-24T00:50:09.613Z,21.97
2023-02-24T00:51:09.576Z,21.97
2023-02-24T00:52:09.561Z,21.97
2023-02-24T00:53:09.542Z,21.96
2023-02-24T00:54:09.513Z,21.96
2023-02-24T00:55:09.489Z,21.97
2023-02-24T00:56:09.474Z,21.96
2023-02-24T00:57:09.453Z,21.96
2023-02-24T00:58:09.440Z,21.96
2023-02-24T00:59:09.395Z,21.97
2023-02-24T01:00:09.366Z,21.97
2023-02-24T01:01:09.393Z,21.96
2023-02-24T01:02:09.320Z,21.95
2023-02-24T01:03:09.316Z,21.95
2023-02-24T01:04:09.308Z,21.96
2023-02-24T01:05:09.257Z,21.96
2023-02-24T01:06:09.233Z,21.95
2023-02-24T01:07:09.205Z,21.95
2023-02-24T01:08:09.194Z,21.95
2023-02-24T01:09:09.164Z,21.96
2023-02-24T01:10:09.152Z,21.96
2023-02-24T01:11:09.126Z,21.96
2023-02-24T01:12:09.123Z,21.96
2023-02-24T01:13:09.075Z,21.95
2023-02-24T01:14:09.064Z,21.95
2023-02-24T01:15:09.121Z,21.95
2023-02-24T01:16:09.075Z,21.95
2023-02-24T01:17:08.992Z,21.95
2023-02-24T01:18:08.954Z,21.95
2023-02-24T01:19:08.935Z,21.95
2023-02-24T01:20:08.906Z,21.94
2023-02-24T02:00:08.005Z,21.94
2023-02-24T02:01:07.974Z,21.94
2023-02-24T02:02:08.119Z,21.93
2023-02-24T02:03:07.939Z,21.94
2023-02-24T02:04:07.926Z,21.94
2023-02-24T02:05:07.882Z,21.93
2023-02-24T02:06:07.864Z,21.94
2023-02-24T02:07:07.837Z,21.93
2023-02-24T02:08:07.823Z,21.94
2023-02-24T02:09:07.800Z,21.93
2023-02-24T02:10:07.777Z,21.93
2023-02-24T02:11:07.773Z,21.92
2023-02-24T02:12:07.739Z,21.93
2023-02-24T02:13:07.734Z,21.93
2023-02-24T02:14:07.694Z,21.93
2023-02-24T02:15:07.677Z,21.92
2023-02-24T02:16:07.701Z,21.92
2023-02-24T02:17:07.616Z,21.93
2023-02-24T02:18:07.627Z,21.92
2023-02-24T02:19:07.573Z,21.93
2023-02-24T02:20:07.569Z,21.92
2023-02-24T02:21:07.518Z,21.92
2023-02-24T02:22:07.496Z,21.93
2023-02-24T02:23:07.514Z,21.93
2023-02-24T02:24:07.468Z,21.92
2023-02-24T02:25:07.447Z,21.93
2023-02-24T02:26:07.425Z,21.93
2023-02-24T02:27:07.406Z,21.93
2023-02-24T02:28:07.372Z,21.93
2023-02-24T02:29:07.351Z,21.94
2023-02-24T02:30:07.344Z,21.93
2023-02-24T02:31:07.538Z,21.93
2023-02-24T02:32:07.379Z,21.92
2023-02-24T02:33:07.261Z,21.93
2023-02-24T02:34:07.237Z,21.93
2023-02-24T02:35:07.218Z,21.93
2023-02-24T02:36:07.253Z,21.92
2023-02-24T02:37:07.159Z,21.92
2023-02-24T02:38:07.138Z,21.93
2023-02-24T02:39:07.119Z,21.93
2023-02-24T02:40:07.105Z,21.93
2023-02-24T02:41:07.106Z,21.93
2023-02-24T02:42:07.093Z,21.92
2023-02-24T02:43:07.017Z,21.92
2023-02-24T02:44:06.993Z,21.92
2023-02-24T02:45:06.991Z,21.93
2023-02-24T02:46:07.001Z,21.93
2023-02-24T02:47:06.905Z,21.92
2023-02-24T02:48:06.875Z,21.93
2023-02-24T02:49:06.838Z,21.92
2023-02-24T02:50:06.836Z,21.93
2023-02-24T02:51:06.802Z,21.92
2023-02-24T02:52:06.771Z,21.92
2023-02-24T02:53:06.739Z,21.92
2023-02-24T02:54:06.714Z,21.92
2023-02-24T02:55:06.691Z,21.92
2023-02-24T02:56:06.676Z,21.92
2023-02-24T02:57:06.645Z,21.92
2023-02-24T02:58:06.624Z,21.92
2023-02-24T02:59:06.600Z,21.92
2023-02-24T03:00:06.586Z,21.92
2023-02-24T03:01:06.654Z,21.92
2023-02-24T03:02:06.547Z,21.91
2023-02-24T03:03:06.514Z,21.92
2023-02-24T03:04:06.497Z,21.91
2023-02-24T03:05:06.517Z,21.92
2023-02-24T03:06:06.450Z,21.91
2023-02-24T03:07:06.417Z,21.92
2023-02-24T03:08:06.404Z,21.91
2023-02-24T03:09:06.369Z,21.91
2023-02-24T03:10:06.354Z,21.91
2023-02-24T03:11:06.330Z,21.91
2023-02-24T03:12:06.315Z,21.91
2023-02-24T03:13:06.313Z,21.92
2023-02-24T03:14:06.281Z,21.92
2023-02-24T03:15:06.242Z,21.92
2023-02-24T03:16:06.227Z,21.91
2023-02-24T03:17:06.198Z,21.91
2023-02-24T03:18:06.180Z,21.92
2023-02-24T03:19:06.169Z,21.92
2023-02-24T03:20:06.136Z,21.92
2023-02-24T03:21:06.131Z,21.92
2023-02-24T03:22:06.109Z,21.92
2023-02-24T03:23:06.103Z,21.92
2023-02-24T03:24:06.051Z,21.92
2023-02-24T03:25:06.035Z,21.91
2023-02-24T03:26:06.077Z,21.91
2023-02-24T03:27:06.006Z,21.92
2023-02-24T03:28:05.974Z,21.92
2023-02-24T03:29:05.958Z,21.91
2023-02-24T03:30:05.955Z,21.91
2023-02-24T03:31:05.973Z,21.91
2023-02-24T03:32:06.057Z,21.91
2023-02-24T03:33:05.881Z,21.91
2023-02-24T03:34:05.864Z,21.91
2023-02-24T03:35:05.864Z,21.90
2023-02-24T03:36:05.825Z,21.90
2023-02-24T03:37:05.801Z,21.90
2023-02-24T03:38:05.785Z,21.91
2023-02-24T03:39:05.768Z,21.91
2023-02-24T03:40:05.738Z,21.90
2023-02-24T03:41:05.723Z,21.90
2023-02-24T03:59:05.350Z,21.81
2023-02-24T04:00:05.356Z,21.80
2023-02-24T04:02:05.373Z,21.78
2023-02-24T04:03:05.267Z,21.77
2023-02-24T04:04:05.260Z,21.77
2023-02-24T04:05:05.306Z,21.78
2023-02-24T04:06:05.205Z,21.79
2023-02-24T04:07:05.172Z,21.77
2023-02-24T04:08:05.151Z,21.76
2023-02-24T04:09:05.126Z,21.76
2023-02-24T04:10:05.114Z,21.77
2023-02-24T04:11:05.080Z,21.78
2023-02-24T04:12:05.059Z,21.77
2023-02-24T04:13:05.020Z,21.77
2023-02-24T04:14:05.002Z,21.75
2023-02-24T04:15:04.971Z,21.74
2023-02-24T04:16:05.045Z,21.75
2023-02-24T04:17:04.938Z,21.75
2023-02-24T04:18:04.923Z,21.76
2023-02-24T04:19:04.902Z,21.75
2023-02-24T04:20:04.870Z,21.75
2023-02-24T04:21:04.864Z,21.75
2023-02-24T04:22:04.823Z,21.75
2023-02-24T04:23:04.853Z,21.75
2023-02-24T04:24:04.783Z,21.76
2023-02-24T04:25:04.753Z,21.73
2023-02-24T04:26:04.754Z,21.73
2023-02-24T04:27:04.717Z,21.73
2023-02-24T04:28:04.682Z,21.74
2023-02-24T04:29:04.660Z,21.75
2023-02-24T04:30:04.636Z,21.74
2023-02-24T04:31:04.725Z,21.73
2023-02-24T04:32:04.850Z,21.74
2023-02-24T04:33:04.589Z,21.74
2023-02-24T04:34:04.557Z,21.73
2023-02-24T04:35:04.529Z,21.74
2023-02-24T04:36:04.517Z,21.74
2023-02-24T04:37:04.509Z,21.73
2023-02-24T04:38:04.482Z,21.72
2023-02-24T04:39:04.467Z,21.72
2023-02-24T04:40:04.456Z,21.73
2023-02-24T04:41:04.423Z,21.74
2023-02-24T04:42:04.403Z,21.72
2023-02-24T04:43:04.397Z,21.71
2023-02-24T04:44:04.368Z,21.70
2023-02-24T04:45:04.342Z,21.70
2023-02-24T04:46:04.348Z,21.71
2023-02-24T04:47:04.311Z,21.72
2023-02-24T04:48:04.279Z,21.70
2023-02-24T04:49:04.262Z,21.70
2023-02-24T04:50:04.235Z,21.71
2023-02-24T04:51:04.221Z,21.71
2023-02-24T04:52:04.209Z,21.71
2023-02-24T04:53:04.174Z,21.71
2023-02-24T04:54:04.151Z,21.69
2023-02-24T04:55:04.141Z,21.69
2023-02-24T04:56:04.114Z,21.69
2023-02-24T04:57:04.094Z,21.70
2023-02-24T04:58:04.077Z,21.70
2023-02-24T04:59:04.051Z,21.69
2023-02-24T05:00:04.053Z,21.68
2023-02-24T05:01:04.029Z,21.69
2023-02-24T05:02:03.991Z,21.70
2023-02-24T05:03:03.989Z,21.70
2023-02-24T05:04:04.018Z,21.70
2023-02-24T05:05:03.926Z,21.68
2023-02-24T05:06:03.906Z,21.67
2023-02-24T05:07:03.888Z,21.67
2023-02-24T05:08:03.865Z,21.68
2023-02-24T05:09:03.838Z,21.69
2023-02-24T05:10:03.826Z,21.69
2023-02-24T05:11:03.837Z,21.68
2023-02-24T05:12:03.767Z,21.68
2023-02-24T05:13:03.748Z,21.69
2023-02-24T05:14:03.726Z,21.69
2023-02-24T05:15:03.706Z,21.71
2023-02-24T05:16:03.744Z,21.68
2023-02-24T05:17:03.668Z,21.67
2023-02-24T05:18:03.641Z,21.67
2023-02-24T05:19:03.626Z,21.68
2023-02-24T05:20:03.608Z,21.68
2023-02-24T05:21:03.590Z,21.69
2023-02-24T05:22:03.615Z,21.67
2023-02-24T05:23:03.546Z,21.68
2023-02-24T05:24:03.509Z,21.67
2023-02-24T05:25:03.488Z,21.68
2023-02-24T05:26:03.463Z,21.69
2023-02-24T05:27:03.447Z,21.68
2023-02-24T05:28:03.421Z,21.67
2023-02-24T05:29:03.400Z,21.66
2023-02-24T05:30:03.393Z,21.66
2023-02-24T05:31:03.455Z,21.66
2023-02-24T05:32:03.464Z,21.67
2023-02-24T05:33:03.335Z,21.67
2023-02-24T05:34:03.305Z,21.67
2023-02-24T05:35:03.288Z,21.66
2023-02-24T05:36:04.486Z,21.67
2023-02-24T05:37:03.254Z,21.67
2023-02-24T05:38:03.259Z,21.68
2023-02-24T05:39:03.204Z,21.67
2023-02-24T05:40:03.186Z,21.65
2023-02-24T05:41:03.160Z,21.66
2023-02-24T05:42:03.131Z,21.66
2023-02-24T05:43:03.126Z,21.67
2023-02-24T05:44:03.094Z,21.68
2023-02-24T05:45:03.068Z,21.66
2023-02-24T05:46:03.045Z,21.64
2023-02-24T05:47:03.115Z,21.65
2023-02-24T05:48:03.019Z,21.65
2023-02-24T05:49:03.010Z,21.66
2023-02-24T05:50:02.984Z,21.66
2023-02-24T05:51:04.858Z,21.64
2023-02-24T05:52:02.948Z,21.65
2023-02-24T05:53:02.917Z,21.65
2023-02-24T05:54:02.903Z,21.66
2023-02-24T05:55:02.882Z,21.67
2023-02-24T05:56:02.863Z,21.65
2023-02-24T05:57:02.842Z,21.64
2023-02-24T05:58:02.820Z,21.63
2023-02-24T05:59:02.816Z,21.63
2023-02-24T06:00:02.815Z,21.64
2023-02-24T06:01:02.752Z,21.65
2023-02-24T06:04:02.700Z,21.63
2023-02-24T06:05:02.674Z,21.64
2023-02-24T06:06:02.648Z,21.65
2023-02-24T06:07:02.629Z,21.64
2023-02-24T06:08:02.621Z,21.63
2023-02-24T06:09:02.598Z,21.62
2023-02-24T06:10:02.576Z,21.62
2023-02-24T07:57:00.032Z,23.10
2023-02-24T07:58:59.758Z,23.08
2023-02-24T07:59:59.675Z,23.07
2023-02-24T08:01:59.630Z,23.03
2023-02-24T08:02:59.604Z,23.02
2023-02-24T08:03:59.600Z,23.01
2023-02-24T08:04:59.544Z,23.00
2023-02-24T08:05:59.501Z,23.00
2023-02-24T08:06:59.479Z,22.98
2023-02-24T08:07:59.496Z,22.98
2023-02-24T08:08:59.409Z,22.97
2023-02-24T08:09:59.421Z,22.97
2023-02-24T08:10:59.365Z,22.96
2023-02-24T08:11:59.341Z,22.97
2023-02-24T08:12:59.350Z,22.96
2023-02-24T08:13:59.302Z,22.94
2023-02-24T08:14:59.243Z,22.94
2023-02-24T08:15:59.319Z,22.93
2023-02-24T08:16:59.200Z,22.93
2023-02-24T08:17:59.162Z,22.91
2023-02-24T08:18:59.124Z,22.91
2023-02-24T08:19:59.081Z,22.89
2023-02-24T08:20:59.086Z,22.87
2023-02-24T08:21:59.020Z,22.87
2023-02-24T08:22:59.002Z,22.85
2023-02-24T08:23:58.960Z,22.85
2023-02-24T08:24:58.998Z,22.84
2023-02-24T08:25:58.985Z,22.83
2023-02-24T08:26:58.919Z,22.81
2023-02-24T08:28:07.246Z,22.81
2023-02-24T08:28:59.815Z,22.81
2023-02-24T08:29:58.821Z,22.80
2023-02-24T08:30:58.885Z,22.80
2023-02-24T08:31:58.854Z,22.80
2023-02-24T08:32:58.761Z,22.80
2023-02-24T08:33:58.688Z,22.80
2023-02-24T08:34:58.666Z,22.79
2023-02-24T08:35:58.603Z,22.78
2023-02-24T08:36:58.573Z,22.77
2023-02-24T08:37:58.534Z,22.77
2023-02-24T08:38:58.531Z,22.77
2023-02-24T08:39:58.448Z,22.76
2023-02-24T08:40:58.489Z,22.76
2023-02-24T08:41:58.369Z,22.76
2023-02-24T08:42:58.317Z,22.75
2023-02-24T08:43:58.288Z,22.75
2023-02-24T08:44:58.365Z,22.74
2023-02-24T08:45:58.207Z,22.74
2023-02-24T08:46:58.208Z,22.73
2023-02-24T08:47:58.138Z,22.72
2023-02-24T08:48:58.103Z,22.70
2023-02-24T08:49:58.087Z,22.69
2023-02-24T08:50:58.006Z,22.68
2023-02-24T08:51:57.986Z,22.68
2023-02-24T08:52:57.940Z,22.66
2023-02-24T08:53:57.902Z,22.65
2023-02-24T08:54:57.862Z,22.65
2023-02-24T08:55:57.915Z,22.64
2023-02-24T08:56:57.784Z,22.64
2023-02-24T08:57:57.749Z,22.63
2023-02-24T08:58:58.074Z,22.64
2023-02-24T08:59:57.782Z,22.63
2023-02-24T09:00:57.705Z,22.63
2023-02-24T09:02:04.788Z,22.64
2023-02-24T09:02:58.558Z,22.62
2023-02-24T09:03:57.534Z,22.62
2023-02-24T09:04:57.514Z,22.62
2023-02-24T09:05:57.442Z,22.61
2023-02-24T09:07:00.281Z,22.62
2023-02-24T09:07:58.384Z,22.62
2023-02-24T09:08:57.398Z,22.64
2023-02-24T09:09:57.335Z,22.65
2023-02-24T09:10:57.298Z,22.66
2023-02-24T09:11:57.357Z,22.67
2023-02-24T09:12:57.248Z,22.68
2023-02-24T09:13:57.228Z,22.68
2023-02-24T09:14:57.205Z,22.68
2023-02-24T09:15:57.174Z,22.70
2023-02-24T09:16:57.145Z,22.72
2023-02-24T09:17:57.133Z,22.72
2023-02-24T09:18:57.084Z,22.74
2023-02-24T09:19:57.065Z,22.75
2023-02-24T09:20:57.071Z,22.76
2023-02-24T09:21:57.648Z,22.77
2023-02-24T09:22:56.968Z,22.78
2023-02-24T09:23:56.970Z,22.79
2023-02-24T09:24:56.912Z,22.81
2023-02-24T09:25:56.905Z,22.81
2023-02-24T09:26:56.875Z,22.82
2023-02-24T09:27:56.849Z,22.84
2023-02-24T09:28:56.905Z,22.84
2023-02-24T09:29:56.756Z,22.84
2023-02-24T09:30:56.784Z,22.84
2023-02-24T09:31:56.817Z,22.84
2023-02-24T09:32:56.738Z,22.83
2023-02-24T09:33:56.645Z,22.82
2023-02-24T09:34:56.614Z,22.82
2023-02-24T09:35:56.586Z,22.82
2023-02-24T09:36:56.549Z,22.82
2023-02-24T09:37:56.513Z,22.82
2023-02-24T09:38:56.484Z,22.82
2023-02-24T09:39:56.458Z,22.82
2023-02-24T09:40:56.437Z,22.82
2023-02-24T09:41:56.501Z,22.82
2023-02-24T09:42:56.367Z,22.83
2023-02-24T09:43:56.358Z,22.83
2023-02-24T09:44:56.337Z,22.83
2023-02-24T09:45:56.409Z,22.83
2023-02-24T09:46:56.355Z,22.83
2023-02-24T09:47:56.274Z,22.84
2023-02-24T09:48:56.171Z,22.83
2023-02-24T09:49:56.349Z,22.84
2023-02-24T09:51:03.084Z,22.84
2023-02-24T09:51:57.088Z,22.85
2023-02-24T09:53:02.937Z,22.85
2023-02-24T09:53:57.055Z,22.85
2023-02-24T09:54:55.994Z,22.85
2023-02-24T09:55:55.962Z,22.86
2023-02-24T09:56:55.930Z,22.86
2023-02-24T09:57:55.899Z,22.86
2023-02-24T09:58:55.879Z,22.85
2023-02-24T09:59:55.834Z,22.85
2023-02-24T10:00:55.889Z,22.85
2023-02-24T10:01:55.834Z,22.85
2023-02-24T10:02:55.750Z,22.86
2023-02-24T10:03:55.858Z,22.87
2023-02-24T11:16:53.627Z,23.57
2023-02-24T11:17:53.648Z,23.55
2023-02-24T11:18:53.576Z,23.53
2023-02-24T11:19:53.541Z,23.54
2023-02-24T11:20:53.503Z,23.53
2023-02-24T11:21:53.489Z,23.54
2023-02-24T11:22:53.437Z,23.54
2023-02-24T11:23:53.463Z,23.54
2023-02-24T11:24:53.378Z,23.55
2023-02-24T11:25:53.367Z,23.55
2023-02-24T11:26:53.312Z,23.56
2023-02-24T11:27:53.286Z,23.57
2023-02-24T11:28:53.252Z,23.56
2023-02-24T11:29:53.220Z,23.56
2023-02-24T11:30:53.375Z,23.56
2023-02-24T11:31:53.266Z,23.56
2023-02-24T11:32:53.142Z,23.56
2023-02-24T11:33:53.088Z,23.55
2023-02-24T11:34:53.054Z,23.55
2023-02-24T11:35:53.028Z,23.56
2023-02-24T11:36:52.996Z,23.56
2023-02-24T11:37:52.986Z,23.58
2023-02-24T11:38:52.937Z,23.60
2023-02-24T11:39:52.900Z,23.63
2023-02-24T11:40:52.872Z,23.66
2023-02-24T11:41:52.837Z,23.69
2023-02-24T11:42:52.814Z,23.72
2023-02-24T11:43:52.774Z,23.74
2023-02-24T11:44:52.741Z,23.77
2023-02-24T11:45:52.749Z,23.80
2023-02-24T11:46:52.676Z,23.82
2023-02-24T11:47:52.648Z,23.82
2023-02-24T11:48:52.617Z,23.80
2023-02-24T11:49:52.591Z,23.80
2023-02-24T11:50:52.580Z,23.81
2023-02-24T11:51:52.543Z,23.77
2023-02-24T11:52:52.498Z,23.74
2023-02-24T11:53:52.477Z,23.72
2023-02-24T11:54:52.448Z,23.70
2023-02-24T11:55:52.408Z,23.69
2023-02-24T11:56:52.378Z,23.68
2023-02-24T11:57:52.324Z,23.67
2023-02-24T11:58:52.303Z,23.67
2023-02-24T11:59:52.255Z,23.67
2023-02-24T12:00:52.233Z,23.66
2023-02-24T12:01:52.200Z,23.65
2023-02-24T12:02:52.183Z,23.65
2023-02-24T12:03:52.181Z,23.65
2023-02-24T12:04:52.092Z,23.66
2023-02-24T12:05:52.185Z,23.66
2023-02-24T12:06:52.027Z,23.66
2023-02-24T12:07:52.009Z,23.67
2023-02-24T12:08:51.958Z,23.67
2023-02-24T12:09:53.680Z,23.65
2023-02-24T12:10:51.926Z,23.66
2023-02-24T12:11:51.860Z,23.66
2023-02-24T12:12:51.801Z,23.67
2023-02-24T12:13:51.764Z,23.66
2023-02-24T12:14:51.739Z,23.65
2023-02-24T12:15:51.734Z,23.65
2023-02-24T12:16:51.738Z,23.65
2023-02-24T12:17:51.628Z,23.64
2023-02-24T12:18:51.597Z,23.64
2023-02-24T12:19:51.567Z,23.64
2023-02-24T12:20:51.575Z,23.64
2023-02-24T12:21:51.493Z,23.64
2023-02-24T12:22:51.467Z,23.64
2023-02-24T12:23:51.410Z,23.64
2023-02-24T12:24:51.373Z,23.63
2023-02-24T12:25:51.341Z,23.63
2023-02-24T12:26:51.306Z,23.65
2023-02-24T12:27:51.276Z,23.66
2023-02-24T12:28:51.238Z,23.69
2023-02-24T12:29:51.213Z,23.71
2023-02-24T12:30:51.223Z,23.73
2023-02-24T12:31:51.288Z,23.72
2023-02-24T12:32:51.168Z,23.70
2023-02-24T12:33:51.052Z,23.70
2023-02-24T12:34:51.012Z,23.69
2023-02-24T12:35:50.983Z,23.67
2023-02-24T12:36:50.947Z,23.67
2023-02-24T12:37:50.921Z,23.66
2023-02-24T12:38:50.877Z,23.65
2023-02-24T12:39:50.848Z,23.63
2023-02-24T12:40:50.811Z,23.64
2023-02-24T12:41:50.783Z,23.61
2023-02-24T12:42:50.743Z,23.59
2023-02-24T12:43:50.717Z,23.57
2023-02-24T12:44:50.679Z,23.56
2023-02-24T12:45:50.679Z,23.53
2023-02-24T12:46:50.612Z,23.53
2023-02-24T12:47:50.577Z,23.52
2023-02-24T12:48:50.549Z,23.52
2023-02-24T12:49:50.513Z,23.51
2023-02-24T12:50:50.479Z,23.50
2023-02-24T12:51:50.446Z,23.49
2023-02-24T12:52:50.417Z,23.47
2023-02-24T12:53:50.388Z,23.46
2023-02-24T12:54:50.348Z,23.46
2023-02-24T12:55:50.320Z,23.46
2023-02-24T12:56:50.288Z,23.46
2023-02-24T12:57:50.255Z,23.45
2023-02-24T12:58:50.286Z,23.44
2023-02-24T12:59:50.202Z,23.44
2023-02-24T13:00:50.181Z,23.45
2023-02-24T13:01:50.135Z,23.44
2023-02-24T13:02:50.111Z,23.44
2023-02-24T13:03:50.061Z,23.44
2023-02-24T13:04:50.063Z,23.44
2023-02-24T13:05:49.997Z,23.42
2023-02-24T13:06:49.975Z,23.41
2023-02-24T13:07:49.949Z,23.42
2023-02-24T13:08:49.906Z,23.42
2023-02-24T13:09:49.871Z,23.40
2023-02-24T13:10:49.840Z,23.39
2023-02-24T13:11:49.818Z,23.40
2023-02-24T13:12:49.779Z,23.41
2023-02-24T13:13:49.742Z,23.40
2023-02-24T13:14:49.764Z,23.41
2023-02-24T13:15:49.701Z,23.41
2023-02-24T13:16:49.741Z,23.41
2023-02-24T13:17:49.632Z,23.41
2023-02-24T13:18:49.608Z,23.42
2023-02-24T13:19:49.569Z,23.41
2023-02-24T13:20:49.543Z,23.40
2023-02-24T13:21:49.511Z,23.40
2023-02-24T13:22:49.481Z,23.41
2023-02-24T13:23:49.444Z,23.40
2023-02-24T13:24:49.412Z,23.40
2023-02-24T13:25:49.386Z,23.40
2023-02-24T13:26:49.345Z,23.40
2023-02-24T13:27:49.342Z,23.40
2023-02-24T13:28:49.310Z,23.40
2023-02-24T13:29:49.259Z,23.40
2023-02-24T13:30:49.275Z,23.39
2023-02-24T13:31:49.333Z,23.40
2023-02-24T13:32:49.306Z,23.41
2023-02-24T13:33:49.118Z,23.41
2023-02-24T13:34:49.109Z,23.41
2023-02-24T13:35:49.092Z,23.42
2023-02-24T13:36:49.047Z,23.41
2023-02-24T13:37:49.015Z,23.41
2023-02-24T13:38:48.992Z,23.42
2023-02-24T13:39:48.954Z,23.42
2023-02-24T13:40:48.917Z,23.42
2023-02-24T13:41:48.939Z,23.41
2023-02-24T13:42:48.857Z,23.41
2023-02-24T13:43:48.824Z,23.41
2023-02-24T13:44:48.785Z,23.42
2023-02-24T13:45:48.953Z,23.42
2023-02-24T13:46:48.727Z,23.41
2023-02-24T13:47:48.694Z,23.42
2023-02-24T13:48:48.661Z,23.41
2023-02-24T13:49:48.650Z,23.41
2023-02-24T13:50:48.599Z,23.41
2023-02-24T13:51:48.562Z,23.42
2023-02-24T13:52:48.538Z,23.42
2023-02-24T13:53:48.505Z,23.43
2023-02-24T13:54:48.470Z,23.43
2023-02-24T13:55:48.437Z,23.43
2023-02-24T13:56:48.412Z,23.43
2023-02-24T13:57:48.375Z,23.43
2023-02-24T13:58:48.334Z,23.42
2023-02-24T13:59:48.316Z,23.42
2023-02-24T14:00:48.280Z,23.42
2023-02-24T14:01:48.341Z,23.43
2023-02-24T14:02:48.288Z,23.42
2023-02-24T14:03:48.214Z,23.43
2023-02-24T14:04:48.155Z,23.42
2023-02-24T14:05:48.114Z,23.42
2023-02-24T14:06:48.084Z,23.43
2023-02-24T14:07:48.065Z,23.43
2023-02-24T14:08:48.030Z,23.43
2023-02-24T14:09:48.001Z,23.43
2023-02-24T14:10:47.961Z,23.42
2023-02-24T14:11:47.938Z,23.43
2023-02-24T14:12:47.927Z,23.43
2023-02-24T14:13:47.868Z,23.43
2023-02-24T14:14:47.855Z,23.42
2023-02-24T14:15:47.901Z,23.43
2023-02-24T14:16:47.777Z,23.43
2023-02-24T14:17:47.791Z,23.43
2023-02-24T14:18:47.721Z,23.42
2023-02-24T14:19:47.716Z,23.43
2023-02-24T14:20:47.656Z,23.42
2023-02-24T14:21:47.629Z,23.43
2023-02-24T14:22:47.596Z,23.42
2023-02-24T14:23:47.558Z,23.41
2023-02-24T14:24:47.528Z,23.42
2023-02-24T14:25:47.483Z,23.42
2023-02-24T14:26:47.461Z,23.43
2023-02-24T14:27:47.425Z,23.42
2023-02-24T14:28:47.398Z,23.43
2023-02-24T14:29:47.363Z,23.44
2023-02-24T14:30:47.383Z,23.44
2023-02-24T14:31:47.395Z,23.44
2023-02-24T14:32:47.327Z,23.44
2023-02-24T14:33:47.237Z,23.45
2023-02-24T14:34:47.210Z,23.45
2023-02-24T14:35:47.169Z,23.45
2023-02-24T14:36:47.136Z,23.45
2023-02-24T14:37:47.107Z,23.45
2023-02-24T14:38:47.079Z,23.45
2023-02-24T14:39:47.039Z,23.44
2023-02-24T14:40:47.010Z,23.45
2023-02-24T14:41:46.984Z,23.45
2023-02-24T14:42:46.949Z,23.46
2023-02-24T14:43:46.922Z,23.46
2023-02-24T14:44:46.888Z,23.46
2023-02-24T14:45:46.858Z,23.46
2023-02-24T14:46:46.910Z,23.45
2023-02-24T14:47:46.791Z,23.45
2023-02-24T14:48:46.775Z,23.44
2023-02-24T14:49:46.741Z,23.44
2023-02-24T14:50:46.705Z,23.43
2023-02-24T14:51:46.682Z,23.43
2023-02-24T14:52:46.648Z,23.41
2023-02-24T14:53:46.629Z,23.41
2023-02-24T14:54:46.589Z,23.39
2023-02-24T14:55:46.602Z,23.39
2023-02-24T14:56:46.521Z,23.37
2023-02-24T14:57:46.490Z,23.37
2023-02-24T14:58:46.463Z,23.36
2023-02-24T14:59:46.421Z,23.35
2023-02-24T15:00:46.396Z,23.34
2023-02-24T15:01:46.455Z,23.33
2023-02-24T15:02:46.374Z,23.33
2023-02-24T15:03:46.375Z,23.33
2023-02-24T15:04:46.293Z,23.32
2023-02-24T15:05:46.249Z,23.31
2023-02-24T15:06:46.218Z,23.30
2023-02-24T15:07:46.220Z,23.29
2023-02-24T15:08:46.182Z,23.28
2023-02-24T15:09:46.136Z,23.27
2023-02-24T15:10:46.100Z,23.26
2023-02-24T15:11:46.066Z,23.25
2023-02-24T15:12:46.055Z,23.24
2023-02-24T15:13:46.012Z,23.23
2023-02-24T15:14:45.981Z,23.23
2023-02-24T15:15:45.976Z,23.22
2023-02-24T15:16:45.924Z,23.22
2023-02-24T15:17:45.897Z,23.20
2023-02-24T15:18:45.862Z,23.20
2023-02-24T15:19:45.836Z,23.20
2023-02-24T15:20:45.839Z,23.19
2023-02-24T15:21:45.788Z,23.19
2023-02-24T15:22:45.750Z,23.18
2023-02-24T15:23:45.694Z,23.17
2023-02-24T17:11:42.621Z,22.66
2023-02-24T17:12:42.593Z,22.66
2023-02-24T17:13:42.549Z,22.66
2023-02-24T17:15:42.489Z,22.65
2023-02-24T17:16:42.489Z,22.64
2023-02-24T17:17:42.432Z,22.64
2023-02-24T17:18:42.398Z,22.63
2023-02-24T17:19:42.365Z,22.63
2023-02-24T17:20:42.342Z,22.62
2023-02-24T17:21:42.296Z,22.63
2023-02-24T17:22:42.269Z,22.63
2023-02-24T17:23:42.234Z,22.62
2023-02-24T17:24:42.198Z,22.61
2023-02-24T17:25:42.175Z,22.61
2023-02-24T17:26:42.134Z,22.60
2023-02-24T17:27:42.112Z,22.60
2023-02-24T17:28:42.085Z,22.60
2023-02-24T17:29:42.042Z,22.60
2023-02-24T17:30:42.198Z,22.59
2023-02-24T17:31:42.160Z,22.59
2023-02-24T17:32:41.980Z,22.59
2023-02-24T17:33:41.941Z,22.59
2023-02-24T17:34:41.886Z,22.59
2023-02-24T17:35:41.870Z,22.59
2023-02-24T17:36:41.846Z,22.59
2023-02-24T17:37:41.805Z,22.59
2023-02-24T17:38:41.773Z,22.59
2023-02-24T17:39:41.744Z,22.59
2023-02-24T17:40:41.705Z,22.58
2023-02-24T17:41:41.682Z,22.59
2023-02-24T17:42:41.657Z,22.58
2023-02-24T17:43:41.615Z,22.58
2023-02-24T17:44:41.596Z,22.58
2023-02-24T17:45:41.552Z,22.57
2023-02-24T17:46:41.580Z,22.56
2023-02-24T17:47:41.490Z,22.57
2023-02-24T17:48:41.454Z,22.56
2023-02-24T17:49:41.437Z,22.56
2023-02-24T17:50:41.387Z,22.55
2023-02-24T17:51:41.361Z,22.56
2023-02-24T17:52:41.335Z,22.55
2023-02-24T17:53:41.292Z,22.56
2023-02-24T17:54:41.257Z,22.55
2023-02-24T17:55:55.905Z,22.55
2023-02-24T17:56:42.201Z,22.55
2023-02-24T17:57:41.159Z,22.54
2023-02-24T17:58:41.119Z,22.54
2023-02-24T17:59:41.087Z,22.54
2023-02-24T18:00:41.053Z,22.54
2023-02-24T18:01:41.029Z,22.55
2023-02-24T18:02:41.175Z,22.54
2023-02-24T18:03:41.014Z,22.53
2023-02-24T18:04:40.910Z,22.54
2023-02-24T18:05:40.895Z,22.54
2023-02-24T18:06:40.853Z,22.53
2023-02-24T18:07:40.824Z,22.52
2023-02-24T18:08:40.817Z,22.52
2023-02-24T18:09:40.760Z,22.52
2023-02-24T18:10:40.727Z,22.51
2023-02-24T18:11:40.697Z,22.51
2023-02-24T18:12:40.654Z,22.51
2023-02-24T18:13:40.627Z,22.51
2023-02-24T18:14:40.576Z,22.52
2023-02-24T18:15:40.588Z,22.51
2023-02-24T18:16:40.516Z,22.51
2023-02-24T18:17:40.503Z,22.51
2023-02-24T18:18:40.458Z,22.51
2023-02-24T18:19:40.437Z,22.51
2023-02-24T18:20:40.383Z,22.50
2023-02-24T18:21:40.351Z,22.51
2023-02-24T18:22:40.331Z,22.50
2023-02-24T18:23:40.623Z,22.50
2023-02-24T18:24:40.252Z,22.50
2023-02-24T18:25:40.233Z,22.49
2023-02-24T18:26:40.204Z,22.50
2023-02-24T18:27:40.171Z,22.49
2023-02-24T18:28:40.124Z,22.49
2023-02-24T18:29:40.094Z,22.49
2023-02-24T18:30:40.105Z,22.50
2023-02-24T18:31:40.368Z,22.49
2023-02-24T18:32:40.290Z,22.49
2023-02-24T18:33:40.168Z,22.48
2023-02-24T18:34:39.919Z,22.48
2023-02-24T18:35:39.871Z,22.48
2023-02-24T18:36:39.826Z,22.48
2023-02-24T18:37:39.792Z,22.47
2023-02-24T18:38:39.757Z,22.47